KAL2022 RCTP-RKSI
Flight info
| Callsign | KAL2022 |
|---|---|
| Flight time | 1h 51m |
| Altitude | 39000 |
| Route | PIANO L3 SALMI B576 CJU Y722 OLMEN |
| Aircraft | B77W/H-SDE1E2E3FGHIJ2J3J4J5M1RWXY/LB1D1 |
Departure
| Time | 2026-05-04 11:46 |
|---|---|
| Airport | Taiwan Taoyuan International Airport (RCTP) |
Arrival
| Time | 2026-05-04 13:37 |
|---|---|
| Airport | Incheon International Airport (RKSI) |
| Time | Latitude | Longitude | Altitude | Speed | Heading |
|---|---|---|---|---|---|
| 2026-05-04 11:22 | 25.07688 | 121.23552 | 108 ft | 0 kts | 319° |
| 2026-05-04 11:29 | 25.07687 | 121.23552 | 106 ft | 0 kts | 319° |
| 2026-05-04 11:33 | 25.07670 | 121.23569 | 106 ft | 3 kts | 319° |
| 2026-05-04 11:33 | 25.07652 | 121.23586 | 105 ft | 3 kts | 319° |
| 2026-05-04 11:33 | 25.07634 | 121.23603 | 105 ft | 3 kts | 319° |
| 2026-05-04 11:34 | 25.07616 | 121.23620 | 105 ft | 3 kts | 319° |
| 2026-05-04 11:34 | 25.07607 | 121.23629 | 105 ft | 3 kts | 347° |
| 2026-05-04 11:34 | 25.07600 | 121.23630 | 103 ft | 3 kts | 32° |
| 2026-05-04 11:34 | 25.07586 | 121.23616 | 103 ft | 3 kts | 49° |
| 2026-05-04 11:35 | 25.07570 | 121.23596 | 104 ft | 3 kts | 49° |
| 2026-05-04 11:35 | 25.07558 | 121.23580 | 106 ft | 0 kts | 49° |
| 2026-05-04 11:38 | 25.07564 | 121.23589 | 107 ft | 6 kts | 49° |
| 2026-05-04 11:38 | 25.07600 | 121.23648 | 108 ft | 10 kts | 76° |
| 2026-05-04 11:38 | 25.07575 | 121.23717 | 107 ft | 10 kts | 135° |
| 2026-05-04 11:39 | 25.07522 | 121.23769 | 106 ft | 10 kts | 140° |
| 2026-05-04 11:39 | 25.07454 | 121.23766 | 105 ft | 11 kts | 212° |
| 2026-05-04 11:40 | 25.07121 | 121.23350 | 105 ft | 12 kts | 229° |
| 2026-05-04 11:41 | 25.07065 | 121.23278 | 107 ft | 12 kts | 229° |
| 2026-05-04 11:41 | 25.07009 | 121.23207 | 105 ft | 12 kts | 229° |
| 2026-05-04 11:41 | 25.06953 | 121.23136 | 106 ft | 12 kts | 229° |
| 2026-05-04 11:41 | 25.06896 | 121.23065 | 104 ft | 12 kts | 229° |
| 2026-05-04 11:42 | 25.06840 | 121.22993 | 107 ft | 12 kts | 229° |
| 2026-05-04 11:42 | 25.06784 | 121.22922 | 106 ft | 12 kts | 229° |
| 2026-05-04 11:42 | 25.06728 | 121.22851 | 106 ft | 12 kts | 229° |
| 2026-05-04 11:42 | 25.06671 | 121.22780 | 107 ft | 12 kts | 229° |
| 2026-05-04 11:43 | 25.06615 | 121.22708 | 106 ft | 12 kts | 229° |
| 2026-05-04 11:43 | 25.06559 | 121.22637 | 107 ft | 12 kts | 229° |
| 2026-05-04 11:43 | 25.06503 | 121.22566 | 106 ft | 12 kts | 229° |
| 2026-05-04 11:43 | 25.06447 | 121.22495 | 106 ft | 12 kts | 229° |
| 2026-05-04 11:44 | 25.06391 | 121.22423 | 108 ft | 12 kts | 228° |
| 2026-05-04 11:44 | 25.06334 | 121.22353 | 106 ft | 12 kts | 229° |
| 2026-05-04 11:44 | 25.06278 | 121.22281 | 107 ft | 12 kts | 229° |
| 2026-05-04 11:44 | 25.06203 | 121.22258 | 104 ft | 13 kts | 157° |
| 2026-05-04 11:45 | 25.06134 | 121.22320 | 104 ft | 13 kts | 138° |
| 2026-05-04 11:45 | 25.06130 | 121.22413 | 103 ft | 13 kts | 52° |
| 2026-05-04 11:45 | 25.06273 | 121.22595 | 101 ft | 68 kts | 49° |
| 2026-05-04 11:45 | 25.06768 | 121.23223 | 101 ft | 146 kts | 49° |
| 2026-05-04 11:46 | 25.07557 | 121.24211 | 269 ft | 183 kts | 51° |
| 2026-05-04 11:46 | 25.08335 | 121.25200 | 1479 ft | 166 kts | 52° |
| 2026-05-04 11:46 | 25.09074 | 121.26177 | 2300 ft | 173 kts | 54° |
| 2026-05-04 11:46 | 25.09915 | 121.27295 | 2577 ft | 207 kts | 53° |
| 2026-05-04 11:47 | 25.10886 | 121.28580 | 3008 ft | 231 kts | 53° |
| 2026-05-04 11:47 | 25.12020 | 121.29872 | 3772 ft | 241 kts | 36° |
| 2026-05-04 11:47 | 25.13652 | 121.30498 | 4483 ft | 263 kts | 6° |
| 2026-05-04 11:47 | 25.15473 | 121.30114 | 5300 ft | 271 kts | 330° |
| 2026-05-04 11:48 | 25.17018 | 121.28996 | 6289 ft | 265 kts | 327° |
| 2026-05-04 11:48 | 25.18861 | 121.28530 | 6998 ft | 281 kts | 356° |
| 2026-05-04 11:48 | 25.20840 | 121.28598 | 7766 ft | 287 kts | 357° |
| 2026-05-04 11:48 | 25.22194 | 121.28625 | 8348 ft | 290 kts | 355° |
| 2026-05-04 11:49 | 25.24231 | 121.28626 | 9217 ft | 295 kts | 354° |
| 2026-05-04 11:49 | 25.26294 | 121.28594 | 10106 ft | 298 kts | 353° |
| 2026-05-04 11:49 | 25.28413 | 121.28535 | 10671 ft | 315 kts | 352° |
| 2026-05-04 11:49 | 25.30709 | 121.28451 | 10880 ft | 345 kts | 353° |
| 2026-05-04 11:50 | 25.34039 | 121.28326 | 11476 ft | 372 kts | 353° |
| 2026-05-04 11:50 | 25.35801 | 121.28285 | 12009 ft | 377 kts | 356° |
| 2026-05-04 11:50 | 25.38437 | 121.28851 | 12813 ft | 398 kts | 18° |
| 2026-05-04 11:50 | 25.40790 | 121.30475 | 13839 ft | 414 kts | 40° |
| 2026-05-04 11:51 | 25.42735 | 121.32837 | 14615 ft | 420 kts | 46° |
| 2026-05-04 11:51 | 25.44646 | 121.35331 | 15398 ft | 430 kts | 47° |
| 2026-05-04 11:51 | 25.46585 | 121.37887 | 16261 ft | 437 kts | 47° |
| 2026-05-04 11:51 | 25.48557 | 121.40478 | 17141 ft | 443 kts | 47° |
| 2026-05-04 11:52 | 25.50570 | 121.43099 | 17984 ft | 451 kts | 46° |
| 2026-05-04 11:52 | 25.52627 | 121.45757 | 18730 ft | 458 kts | 46° |
| 2026-05-04 11:52 | 25.54725 | 121.48452 | 19452 ft | 465 kts | 46° |
| 2026-05-04 11:52 | 25.56849 | 121.51175 | 20183 ft | 470 kts | 46° |
| 2026-05-04 11:53 | 25.59030 | 121.53967 | 20929 ft | 476 kts | 46° |
| 2026-05-04 11:53 | 25.61211 | 121.56761 | 21645 ft | 482 kts | 46° |
| 2026-05-04 11:53 | 25.63391 | 121.59556 | 22334 ft | 489 kts | 46° |
| 2026-05-04 11:53 | 25.65655 | 121.62461 | 23048 ft | 494 kts | 46° |
| 2026-05-04 11:55 | 25.81995 | 121.83154 | 27118 ft | 522 kts | 36° |
| 2026-05-04 11:55 | 25.84878 | 121.85595 | 27608 ft | 522 kts | 30° |
| 2026-05-04 11:56 | 25.87899 | 121.87872 | 28119 ft | 527 kts | 28° |
| 2026-05-04 11:56 | 25.90950 | 121.90157 | 28629 ft | 532 kts | 29° |
| 2026-05-04 11:56 | 25.94005 | 121.92521 | 29140 ft | 538 kts | 30° |
| 2026-05-04 11:56 | 25.97052 | 121.94965 | 29637 ft | 543 kts | 31° |
| 2026-05-04 11:57 | 26.00153 | 121.97495 | 30108 ft | 548 kts | 31° |
| 2026-05-04 11:57 | 26.03193 | 121.99974 | 30498 ft | 552 kts | 31° |
| 2026-05-04 11:57 | 26.06325 | 122.02473 | 30857 ft | 555 kts | 30° |
| 2026-05-04 11:57 | 26.09493 | 122.04949 | 31269 ft | 557 kts | 29° |
| 2026-05-04 11:58 | 26.12673 | 122.07415 | 31787 ft | 556 kts | 29° |
| 2026-05-04 11:58 | 26.15838 | 122.09869 | 32366 ft | 554 kts | 28° |
| 2026-05-04 11:58 | 26.18996 | 122.12325 | 32915 ft | 553 kts | 28° |
| 2026-05-04 11:58 | 26.22147 | 122.14784 | 33399 ft | 553 kts | 28° |
| 2026-05-04 11:59 | 26.25299 | 122.17250 | 33873 ft | 554 kts | 28° |
| 2026-05-04 11:59 | 26.28449 | 122.19722 | 34329 ft | 553 kts | 27° |
| 2026-05-04 11:59 | 26.31588 | 122.22189 | 34800 ft | 551 kts | 27° |
| 2026-05-04 11:59 | 26.34716 | 122.24651 | 35292 ft | 549 kts | 27° |
| 2026-05-04 12:00 | 26.37820 | 122.27095 | 35800 ft | 546 kts | 27° |
| 2026-05-04 12:00 | 26.40913 | 122.29531 | 36281 ft | 543 kts | 27° |
| 2026-05-04 12:00 | 26.43997 | 122.31960 | 36711 ft | 542 kts | 27° |
| 2026-05-04 12:00 | 26.47076 | 122.34384 | 37124 ft | 541 kts | 27° |
| 2026-05-04 12:01 | 26.50167 | 122.36817 | 37198 ft | 547 kts | 27° |
| 2026-05-04 12:02 | 26.72374 | 122.54364 | 37185 ft | 568 kts | 28° |
| 2026-05-04 12:03 | 26.78826 | 122.59487 | 37180 ft | 569 kts | 28° |
| 2026-05-04 12:03 | 26.85280 | 122.64614 | 37178 ft | 568 kts | 28° |
| 2026-05-04 12:04 | 26.91718 | 122.69736 | 37180 ft | 567 kts | 28° |
| 2026-05-04 12:04 | 26.98139 | 122.74850 | 37180 ft | 566 kts | 28° |
| 2026-05-04 12:05 | 27.04550 | 122.79964 | 37178 ft | 565 kts | 28° |
| 2026-05-04 12:05 | 27.10953 | 122.85085 | 37174 ft | 565 kts | 28° |
| 2026-05-04 12:06 | 27.17338 | 122.90246 | 37174 ft | 565 kts | 28° |
| 2026-05-04 12:06 | 27.23668 | 122.95499 | 37175 ft | 570 kts | 32° |
| 2026-05-04 12:07 | 27.29743 | 123.01278 | 37181 ft | 573 kts | 34° |
| 2026-05-04 12:07 | 27.35782 | 123.07151 | 37182 ft | 574 kts | 33° |
| 2026-05-04 12:08 | 27.41821 | 123.12938 | 37193 ft | 574 kts | 33° |
| 2026-05-04 12:08 | 27.47912 | 123.18767 | 37181 ft | 576 kts | 33° |
| 2026-05-04 12:09 | 27.54003 | 123.24629 | 37189 ft | 577 kts | 33° |
| 2026-05-04 12:09 | 27.60106 | 123.30516 | 37192 ft | 577 kts | 33° |
| 2026-05-04 12:10 | 27.66211 | 123.36413 | 37188 ft | 578 kts | 33° |
| 2026-05-04 12:10 | 27.72323 | 123.42323 | 37186 ft | 579 kts | 33° |
| 2026-05-04 12:11 | 27.78446 | 123.48252 | 37184 ft | 580 kts | 33° |
| 2026-05-04 12:11 | 27.84568 | 123.54191 | 37185 ft | 581 kts | 33° |
| 2026-05-04 12:12 | 27.90695 | 123.60144 | 37180 ft | 581 kts | 33° |
| 2026-05-04 12:12 | 27.96824 | 123.66109 | 37182 ft | 581 kts | 33° |
| 2026-05-04 12:14 | 28.21372 | 123.90068 | 37195 ft | 583 kts | 33° |
| 2026-05-04 12:15 | 28.27516 | 123.96088 | 37197 ft | 584 kts | 34° |
| 2026-05-04 12:15 | 28.33329 | 124.02628 | 37188 ft | 595 kts | 44° |
| 2026-05-04 12:16 | 28.38347 | 124.10164 | 37195 ft | 600 kts | 49° |
| 2026-05-04 12:16 | 28.43237 | 124.17850 | 37192 ft | 600 kts | 49° |
| 2026-05-04 12:17 | 28.48181 | 124.25500 | 37188 ft | 600 kts | 49° |
| 2026-05-04 12:17 | 28.53161 | 124.33117 | 37188 ft | 601 kts | 48° |
| 2026-05-04 12:18 | 28.58145 | 124.40750 | 37186 ft | 601 kts | 49° |
| 2026-05-04 12:18 | 28.63119 | 124.48400 | 37185 ft | 601 kts | 49° |
| 2026-05-04 12:19 | 28.68087 | 124.56061 | 37187 ft | 601 kts | 49° |
| 2026-05-04 12:19 | 28.73072 | 124.63696 | 37183 ft | 597 kts | 45° |
| 2026-05-04 12:20 | 28.75903 | 124.67091 | 37186 ft | 587 kts | 34° |
| 2026-05-04 12:20 | 28.79088 | 124.69928 | 37207 ft | 576 kts | 26° |
| 2026-05-04 12:20 | 28.86037 | 124.74047 | 37188 ft | 550 kts | 8° |
| 2026-05-04 12:21 | 28.93290 | 124.76813 | 37198 ft | 550 kts | 7° |
| 2026-05-04 12:21 | 29.00562 | 124.79578 | 37198 ft | 552 kts | 8° |
| 2026-05-04 12:22 | 29.07835 | 124.82443 | 37193 ft | 554 kts | 8° |
| 2026-05-04 12:22 | 29.15117 | 124.85364 | 37193 ft | 555 kts | 8° |
| 2026-05-04 12:23 | 29.22407 | 124.88294 | 37198 ft | 555 kts | 8° |
| 2026-05-04 12:23 | 29.29705 | 124.91224 | 37190 ft | 556 kts | 8° |
| 2026-05-04 12:24 | 29.36949 | 124.94131 | 37217 ft | 557 kts | 8° |
| 2026-05-04 12:24 | 29.40612 | 124.95602 | 37439 ft | 557 kts | 8° |
| 2026-05-04 12:24 | 29.44311 | 124.97091 | 37802 ft | 555 kts | 8° |
| 2026-05-04 12:25 | 29.47892 | 124.98536 | 38188 ft | 552 kts | 8° |
| 2026-05-04 12:25 | 29.51505 | 124.99995 | 38558 ft | 549 kts | 8° |
| 2026-05-04 12:25 | 29.55105 | 125.01448 | 38859 ft | 548 kts | 8° |
| 2026-05-04 12:25 | 29.58698 | 125.02896 | 39063 ft | 547 kts | 8° |
| 2026-05-04 12:26 | 29.65906 | 125.05801 | 39164 ft | 550 kts | 8° |
| 2026-05-04 12:26 | 29.73163 | 125.08738 | 39187 ft | 547 kts | 8° |
| 2026-05-04 12:27 | 29.80281 | 125.11625 | 39191 ft | 545 kts | 8° |
| 2026-05-04 12:27 | 29.87423 | 125.14523 | 39194 ft | 544 kts | 8° |
| 2026-05-04 12:28 | 29.94550 | 125.17418 | 39190 ft | 543 kts | 8° |
| 2026-05-04 12:28 | 30.01681 | 125.20320 | 39197 ft | 544 kts | 9° |
| 2026-05-04 12:29 | 30.08821 | 125.23238 | 39188 ft | 545 kts | 9° |
| 2026-05-04 12:29 | 30.15962 | 125.26165 | 39185 ft | 545 kts | 9° |
| 2026-05-04 12:30 | 30.23124 | 125.29105 | 39193 ft | 546 kts | 9° |
| 2026-05-04 12:30 | 30.30287 | 125.32050 | 39198 ft | 547 kts | 9° |
| 2026-05-04 12:31 | 30.37456 | 125.35001 | 39198 ft | 547 kts | 9° |
| 2026-05-04 12:31 | 30.44623 | 125.37956 | 39194 ft | 547 kts | 9° |
| 2026-05-04 12:32 | 30.54172 | 125.41901 | 39194 ft | 547 kts | 9° |
| 2026-05-04 12:33 | 30.61336 | 125.44866 | 39191 ft | 547 kts | 9° |
| 2026-05-04 12:33 | 30.69706 | 125.48336 | 39187 ft | 546 kts | 9° |
| 2026-05-04 12:34 | 30.75657 | 125.50807 | 39189 ft | 546 kts | 9° |
| 2026-05-04 12:34 | 30.82807 | 125.53779 | 39189 ft | 546 kts | 9° |
| 2026-05-04 12:35 | 30.89961 | 125.56757 | 39188 ft | 546 kts | 9° |
| 2026-05-04 12:35 | 30.97110 | 125.59739 | 39186 ft | 546 kts | 9° |
| 2026-05-04 12:36 | 31.04262 | 125.62727 | 39183 ft | 546 kts | 9° |
| 2026-05-04 12:36 | 31.11414 | 125.65720 | 39189 ft | 546 kts | 9° |
| 2026-05-04 12:37 | 31.18573 | 125.68720 | 39193 ft | 547 kts | 9° |
| 2026-05-04 12:37 | 31.25740 | 125.71728 | 39196 ft | 547 kts | 9° |
| 2026-05-04 12:38 | 31.32899 | 125.74740 | 39188 ft | 546 kts | 9° |
| 2026-05-04 12:38 | 31.40042 | 125.77749 | 39184 ft | 545 kts | 9° |
| 2026-05-04 12:39 | 31.47164 | 125.80754 | 39179 ft | 543 kts | 9° |
| 2026-05-04 12:39 | 31.54214 | 125.83732 | 39184 ft | 542 kts | 9° |
| 2026-05-04 12:40 | 31.61299 | 125.86728 | 39188 ft | 541 kts | 9° |
| 2026-05-04 12:40 | 31.68369 | 125.89701 | 39185 ft | 540 kts | 9° |
| 2026-05-04 12:41 | 31.75438 | 125.92675 | 39187 ft | 539 kts | 9° |
| 2026-05-04 12:41 | 31.82494 | 125.95651 | 39188 ft | 539 kts | 9° |
| 2026-05-04 12:42 | 31.89601 | 125.98649 | 39188 ft | 539 kts | 9° |
| 2026-05-04 12:42 | 31.96616 | 126.01613 | 39186 ft | 539 kts | 9° |
| 2026-05-04 12:43 | 32.03667 | 126.04598 | 39183 ft | 539 kts | 10° |
| 2026-05-04 12:43 | 32.10727 | 126.07589 | 39180 ft | 539 kts | 10° |
| 2026-05-04 12:44 | 32.17775 | 126.10573 | 39178 ft | 538 kts | 10° |
| 2026-05-04 12:44 | 32.24826 | 126.13564 | 39184 ft | 538 kts | 10° |
| 2026-05-04 12:45 | 32.31867 | 126.16557 | 39185 ft | 538 kts | 10° |
| 2026-05-04 12:45 | 32.38904 | 126.19554 | 39174 ft | 538 kts | 10° |
| 2026-05-04 12:46 | 32.45946 | 126.22558 | 39175 ft | 537 kts | 10° |
| 2026-05-04 12:46 | 32.52971 | 126.25559 | 39177 ft | 537 kts | 10° |
| 2026-05-04 12:47 | 32.59998 | 126.28572 | 39173 ft | 537 kts | 11° |
| 2026-05-04 12:47 | 32.67017 | 126.31596 | 39171 ft | 537 kts | 11° |
| 2026-05-04 12:48 | 32.74028 | 126.34621 | 39173 ft | 536 kts | 11° |
| 2026-05-04 12:48 | 32.81041 | 126.37651 | 39174 ft | 536 kts | 11° |
| 2026-05-04 12:49 | 32.88054 | 126.40686 | 39174 ft | 536 kts | 11° |
| 2026-05-04 12:49 | 32.95062 | 126.43724 | 39174 ft | 536 kts | 11° |
| 2026-05-04 12:50 | 33.02067 | 126.46763 | 39166 ft | 536 kts | 11° |
| 2026-05-04 12:50 | 33.09084 | 126.49768 | 39167 ft | 535 kts | 11° |
| 2026-05-04 12:51 | 33.16099 | 126.52763 | 39163 ft | 536 kts | 11° |
| 2026-05-04 12:51 | 33.23117 | 126.55773 | 39160 ft | 536 kts | 11° |
| 2026-05-04 12:52 | 33.30136 | 126.58794 | 39160 ft | 536 kts | 11° |
| 2026-05-04 12:52 | 33.37158 | 126.61820 | 39159 ft | 537 kts | 11° |
| 2026-05-04 12:53 | 33.44185 | 126.64877 | 39155 ft | 537 kts | 12° |
| 2026-05-04 12:53 | 33.51152 | 126.67929 | 39160 ft | 536 kts | 10° |
| 2026-05-04 12:54 | 33.58273 | 126.70126 | 39156 ft | 522 kts | 0° |
| 2026-05-04 12:54 | 33.65412 | 126.70988 | 39164 ft | 514 kts | 355° |
| 2026-05-04 12:55 | 33.72541 | 126.71647 | 39160 ft | 514 kts | 355° |
| 2026-05-04 12:55 | 33.79676 | 126.72387 | 39159 ft | 515 kts | 356° |
| 2026-05-04 12:56 | 33.86813 | 126.73162 | 39155 ft | 515 kts | 356° |
| 2026-05-04 12:56 | 33.93954 | 126.73918 | 39161 ft | 515 kts | 356° |
| 2026-05-04 12:57 | 34.01087 | 126.74656 | 39157 ft | 515 kts | 356° |
| 2026-05-04 12:57 | 34.08219 | 126.75398 | 39158 ft | 514 kts | 356° |
| 2026-05-04 12:58 | 34.15348 | 126.76145 | 39152 ft | 514 kts | 356° |
| 2026-05-04 12:58 | 34.22473 | 126.76892 | 39148 ft | 514 kts | 356° |
| 2026-05-04 12:59 | 34.29590 | 126.77641 | 39146 ft | 513 kts | 356° |
| 2026-05-04 12:59 | 34.36703 | 126.78392 | 39141 ft | 513 kts | 356° |
| 2026-05-04 13:00 | 34.43808 | 126.79145 | 39140 ft | 512 kts | 356° |
| 2026-05-04 13:00 | 34.50907 | 126.79897 | 39134 ft | 512 kts | 356° |
| 2026-05-04 13:01 | 34.58002 | 126.80648 | 39137 ft | 512 kts | 356° |
| 2026-05-04 13:01 | 34.65101 | 126.81404 | 39137 ft | 512 kts | 356° |
| 2026-05-04 13:02 | 34.72195 | 126.82160 | 39134 ft | 512 kts | 356° |
| 2026-05-04 13:02 | 34.79294 | 126.82917 | 39134 ft | 512 kts | 356° |
| 2026-05-04 13:03 | 34.86342 | 126.83671 | 39133 ft | 512 kts | 356° |
| 2026-05-04 13:03 | 34.91084 | 126.84179 | 39132 ft | 511 kts | 356° |
| 2026-05-04 13:04 | 34.97425 | 126.84859 | 39126 ft | 511 kts | 356° |
| 2026-05-04 13:04 | 35.04509 | 126.85619 | 39124 ft | 510 kts | 356° |
| 2026-05-04 13:05 | 35.11523 | 126.86378 | 39028 ft | 500 kts | 356° |
| 2026-05-04 13:05 | 35.14972 | 126.86750 | 38877 ft | 497 kts | 356° |
| 2026-05-04 13:05 | 35.18413 | 126.87124 | 38589 ft | 496 kts | 356° |
| 2026-05-04 13:05 | 35.21853 | 126.87496 | 38210 ft | 496 kts | 357° |
| 2026-05-04 13:06 | 35.25290 | 126.87868 | 37834 ft | 496 kts | 357° |
| 2026-05-04 13:06 | 35.28733 | 126.88242 | 37467 ft | 496 kts | 357° |
| 2026-05-04 13:06 | 35.32166 | 126.88617 | 37188 ft | 494 kts | 357° |
| 2026-05-04 13:06 | 35.35578 | 126.88992 | 36996 ft | 490 kts | 357° |
| 2026-05-04 13:07 | 35.38957 | 126.89363 | 36798 ft | 486 kts | 357° |
| 2026-05-04 13:07 | 35.42303 | 126.89730 | 36503 ft | 476 kts | 357° |
| 2026-05-04 13:07 | 35.45566 | 126.90089 | 35904 ft | 470 kts | 358° |
| 2026-05-04 13:07 | 35.48816 | 126.90442 | 35351 ft | 468 kts | 358° |
| 2026-05-04 13:08 | 35.52059 | 126.90794 | 34827 ft | 466 kts | 358° |
| 2026-05-04 13:08 | 35.55276 | 126.91145 | 34386 ft | 463 kts | 358° |
| 2026-05-04 13:08 | 35.58463 | 126.91494 | 33957 ft | 458 kts | 359° |
| 2026-05-04 13:08 | 35.61623 | 126.91842 | 33523 ft | 452 kts | 359° |
| 2026-05-04 13:09 | 35.64738 | 126.92184 | 33082 ft | 447 kts | 359° |
| 2026-05-04 13:09 | 35.67825 | 126.92523 | 32642 ft | 443 kts | 359° |
| 2026-05-04 13:09 | 35.70874 | 126.92857 | 32203 ft | 438 kts | 359° |
| 2026-05-04 13:09 | 35.73901 | 126.93188 | 31765 ft | 434 kts | 360° |
| 2026-05-04 13:10 | 35.76887 | 126.93515 | 31345 ft | 430 kts | 0° |
| 2026-05-04 13:10 | 35.79817 | 126.93836 | 30912 ft | 426 kts | 0° |
| 2026-05-04 13:10 | 35.82796 | 126.94163 | 30458 ft | 423 kts | 0° |
| 2026-05-04 13:10 | 35.85678 | 126.94479 | 29989 ft | 420 kts | 1° |
| 2026-05-04 13:11 | 35.88579 | 126.94799 | 29471 ft | 417 kts | 1° |
| 2026-05-04 13:11 | 35.91450 | 126.95117 | 29001 ft | 413 kts | 1° |
| 2026-05-04 13:11 | 35.94300 | 126.95435 | 28544 ft | 409 kts | 1° |
| 2026-05-04 13:11 | 35.97122 | 126.95751 | 28078 ft | 406 kts | 1° |
| 2026-05-04 13:12 | 35.99921 | 126.96064 | 27619 ft | 402 kts | 1° |
| 2026-05-04 13:12 | 36.02692 | 126.96374 | 27178 ft | 399 kts | 1° |
| 2026-05-04 13:12 | 36.05457 | 126.96682 | 26738 ft | 396 kts | 1° |
| 2026-05-04 13:12 | 36.08190 | 126.96988 | 26294 ft | 393 kts | 1° |
| 2026-05-04 13:13 | 36.10907 | 126.97291 | 25858 ft | 391 kts | 1° |
| 2026-05-04 13:13 | 36.13607 | 126.97593 | 25430 ft | 388 kts | 1° |
| 2026-05-04 13:13 | 36.16288 | 126.97893 | 24997 ft | 386 kts | 1° |
| 2026-05-04 13:13 | 36.18950 | 126.98191 | 24576 ft | 384 kts | 2° |
| 2026-05-04 13:14 | 36.21602 | 126.98488 | 24150 ft | 382 kts | 2° |
| 2026-05-04 13:14 | 36.24239 | 126.98784 | 23728 ft | 380 kts | 2° |
| 2026-05-04 13:14 | 36.26864 | 126.99079 | 23227 ft | 378 kts | 2° |
| 2026-05-04 13:14 | 36.29475 | 126.99372 | 22774 ft | 375 kts | 3° |
| 2026-05-04 13:15 | 36.32066 | 126.99663 | 22331 ft | 372 kts | 3° |
| 2026-05-04 13:15 | 36.34635 | 126.99953 | 21911 ft | 369 kts | 4° |
| 2026-05-04 13:15 | 36.37185 | 127.00240 | 21490 ft | 367 kts | 4° |
| 2026-05-04 13:15 | 36.39722 | 127.00404 | 21065 ft | 364 kts | 359° |
| 2026-05-04 13:16 | 36.42239 | 127.00320 | 20658 ft | 361 kts | 357° |
| 2026-05-04 13:16 | 36.44742 | 127.00203 | 20226 ft | 359 kts | 357° |
| 2026-05-04 13:16 | 36.47238 | 127.00088 | 19807 ft | 358 kts | 358° |
| 2026-05-04 13:16 | 36.49722 | 126.99983 | 19392 ft | 357 kts | 358° |
| 2026-05-04 13:17 | 36.52204 | 126.99885 | 18967 ft | 356 kts | 358° |
| 2026-05-04 13:17 | 36.54678 | 126.99791 | 18536 ft | 356 kts | 359° |
| 2026-05-04 13:17 | 36.57152 | 126.99697 | 18095 ft | 355 kts | 358° |
| 2026-05-04 13:17 | 36.59585 | 126.99609 | 17885 ft | 346 kts | 358° |
| 2026-05-04 13:18 | 36.61961 | 126.99524 | 17681 ft | 337 kts | 358° |
| 2026-05-04 13:18 | 36.64279 | 126.99441 | 17497 ft | 332 kts | 358° |
| 2026-05-04 13:18 | 36.66593 | 126.99357 | 17313 ft | 334 kts | 358° |
| 2026-05-04 13:18 | 36.68932 | 126.99273 | 17145 ft | 338 kts | 358° |
| 2026-05-04 13:19 | 36.71285 | 126.99188 | 16966 ft | 338 kts | 358° |
| 2026-05-04 13:19 | 36.72835 | 126.99122 | 16836 ft | 334 kts | 356° |
| 2026-05-04 13:19 | 36.75088 | 126.98527 | 16628 ft | 330 kts | 339° |
| 2026-05-04 13:19 | 36.77186 | 126.97390 | 16480 ft | 327 kts | 334° |
| 2026-05-04 13:20 | 36.79131 | 126.95900 | 16307 ft | 331 kts | 324° |
| 2026-05-04 13:20 | 36.80971 | 126.94141 | 16135 ft | 335 kts | 322° |
| 2026-05-04 13:20 | 36.83373 | 126.91731 | 15902 ft | 333 kts | 321° |
| 2026-05-04 13:20 | 36.85167 | 126.89919 | 15739 ft | 331 kts | 321° |
| 2026-05-04 13:21 | 36.86950 | 126.88112 | 15571 ft | 329 kts | 321° |
| 2026-05-04 13:21 | 36.88704 | 126.86332 | 15267 ft | 319 kts | 321° |
| 2026-05-04 13:21 | 36.89854 | 126.85164 | 14814 ft | 312 kts | 321° |
| 2026-05-04 13:21 | 36.92065 | 126.82924 | 13631 ft | 309 kts | 321° |
| 2026-05-04 13:22 | 36.93210 | 126.81766 | 13170 ft | 315 kts | 321° |
| 2026-05-04 13:22 | 36.94897 | 126.80063 | 12707 ft | 316 kts | 321° |
| 2026-05-04 13:22 | 36.96601 | 126.78341 | 12323 ft | 314 kts | 321° |
| 2026-05-04 13:22 | 36.98288 | 126.76634 | 11975 ft | 311 kts | 321° |
| 2026-05-04 13:23 | 36.99965 | 126.74936 | 11617 ft | 309 kts | 321° |
| 2026-05-04 13:23 | 37.01625 | 126.73251 | 11263 ft | 306 kts | 321° |
| 2026-05-04 13:23 | 37.03263 | 126.71588 | 10864 ft | 296 kts | 321° |
| 2026-05-04 13:23 | 37.04824 | 126.69998 | 10397 ft | 280 kts | 321° |
| 2026-05-04 13:24 | 37.06288 | 126.68504 | 9969 ft | 265 kts | 321° |
| 2026-05-04 13:24 | 37.07684 | 126.67075 | 9414 ft | 254 kts | 320° |
| 2026-05-04 13:24 | 37.08785 | 126.65417 | 8841 ft | 246 kts | 294° |
| 2026-05-04 13:25 | 37.08405 | 126.61380 | 8134 ft | 246 kts | 232° |
| 2026-05-04 13:25 | 37.07053 | 126.60104 | 7865 ft | 246 kts | 202° |
| 2026-05-04 13:25 | 37.05385 | 126.59639 | 7534 ft | 248 kts | 180° |
| 2026-05-04 13:25 | 37.03723 | 126.60169 | 7196 ft | 251 kts | 149° |
| 2026-05-04 13:26 | 37.02520 | 126.61673 | 7055 ft | 242 kts | 117° |
| 2026-05-04 13:26 | 37.02128 | 126.63664 | 6989 ft | 234 kts | 84° |
| 2026-05-04 13:26 | 37.02612 | 126.65515 | 6972 ft | 221 kts | 50° |
| 2026-05-04 13:26 | 37.03772 | 126.66658 | 6985 ft | 212 kts | 15° |
| 2026-05-04 13:27 | 37.05260 | 126.66853 | 7041 ft | 220 kts | 355° |
| 2026-05-04 13:27 | 37.06762 | 126.66653 | 6932 ft | 214 kts | 348° |
| 2026-05-04 13:27 | 37.08204 | 126.66305 | 6772 ft | 206 kts | 346° |
| 2026-05-04 13:27 | 37.09566 | 126.65953 | 6688 ft | 194 kts | 346° |
| 2026-05-04 13:28 | 37.10863 | 126.65618 | 6481 ft | 188 kts | 346° |
| 2026-05-04 13:28 | 37.12133 | 126.65292 | 6198 ft | 185 kts | 346° |
| 2026-05-04 13:28 | 37.13376 | 126.64975 | 5892 ft | 185 kts | 346° |
| 2026-05-04 13:28 | 37.14633 | 126.64658 | 5589 ft | 184 kts | 347° |
| 2026-05-04 13:29 | 37.15884 | 126.64346 | 5282 ft | 183 kts | 347° |
| 2026-05-04 13:29 | 37.17132 | 126.64037 | 4973 ft | 183 kts | 347° |
| 2026-05-04 13:29 | 37.18369 | 126.63732 | 4724 ft | 179 kts | 347° |
| 2026-05-04 13:29 | 37.19515 | 126.63450 | 4579 ft | 168 kts | 347° |
| 2026-05-04 13:30 | 37.20631 | 126.63176 | 4362 ft | 159 kts | 346° |
| 2026-05-04 13:30 | 37.21711 | 126.62909 | 4172 ft | 159 kts | 346° |
| 2026-05-04 13:30 | 37.22794 | 126.62624 | 3999 ft | 159 kts | 339° |
| 2026-05-04 13:30 | 37.23711 | 126.61906 | 3804 ft | 154 kts | 321° |
| 2026-05-04 13:31 | 37.24587 | 126.61123 | 3691 ft | 154 kts | 324° |
| 2026-05-04 13:31 | 37.25474 | 126.60351 | 3661 ft | 156 kts | 323° |
| 2026-05-04 13:31 | 37.26365 | 126.59568 | 3615 ft | 156 kts | 323° |
| 2026-05-04 13:31 | 37.27249 | 126.58786 | 3599 ft | 154 kts | 323° |
| 2026-05-04 13:32 | 37.28124 | 126.58011 | 3594 ft | 155 kts | 323° |
| 2026-05-04 13:32 | 37.28997 | 126.57237 | 3597 ft | 154 kts | 323° |
| 2026-05-04 13:32 | 37.29887 | 126.56447 | 3452 ft | 158 kts | 323° |
| 2026-05-04 13:32 | 37.30776 | 126.55658 | 3240 ft | 154 kts | 323° |
| 2026-05-04 13:33 | 37.31645 | 126.54886 | 3045 ft | 153 kts | 322° |
| 2026-05-04 13:33 | 37.32510 | 126.54119 | 2852 ft | 153 kts | 322° |
| 2026-05-04 13:33 | 37.33363 | 126.53362 | 2637 ft | 144 kts | 322° |
| 2026-05-04 13:33 | 37.34157 | 126.52656 | 2476 ft | 138 kts | 322° |
| 2026-05-04 13:34 | 37.34937 | 126.51963 | 2277 ft | 137 kts | 322° |
| 2026-05-04 13:34 | 37.35703 | 126.51281 | 2099 ft | 137 kts | 321° |
| 2026-05-04 13:34 | 37.36483 | 126.50588 | 1910 ft | 138 kts | 321° |
| 2026-05-04 13:34 | 37.37262 | 126.49895 | 1725 ft | 137 kts | 321° |
| 2026-05-04 13:35 | 37.38040 | 126.49202 | 1536 ft | 137 kts | 321° |
| 2026-05-04 13:35 | 37.39616 | 126.47800 | 1161 ft | 140 kts | 321° |
| 2026-05-04 13:35 | 37.40408 | 126.47096 | 969 ft | 140 kts | 321° |
| 2026-05-04 13:36 | 37.41184 | 126.46399 | 781 ft | 140 kts | 321° |
| 2026-05-04 13:36 | 37.41978 | 126.45684 | 608 ft | 140 kts | 322° |
| 2026-05-04 13:36 | 37.42772 | 126.44983 | 417 ft | 140 kts | 322° |
| 2026-05-04 13:36 | 37.43569 | 126.44284 | 211 ft | 139 kts | 322° |
| 2026-05-04 13:37 | 37.44357 | 126.43588 | 51 ft | 137 kts | 323° |
| 2026-05-04 13:37 | 37.45044 | 126.42974 | 38 ft | 102 kts | 325° |
| 2026-05-04 13:37 | 37.45503 | 126.42567 | 36 ft | 60 kts | 325° |
| 2026-05-04 13:37 | 37.45757 | 126.42441 | 38 ft | 25 kts | 353° |
| 2026-05-04 13:38 | 37.45925 | 126.42420 | 38 ft | 22 kts | 349° |
| 2026-05-04 13:38 | 37.46032 | 126.42377 | 38 ft | 9 kts | 5° |
| 2026-05-04 13:38 | 37.46079 | 126.42414 | 36 ft | 1 kts | 54° |
| 2026-05-04 13:38 | 37.46105 | 126.42459 | 38 ft | 20 kts | 53° |
| 2026-05-04 13:39 | 37.46200 | 126.42623 | 38 ft | 16 kts | 54° |
| 2026-05-04 13:39 | 37.46241 | 126.42716 | 38 ft | 10 kts | 83° |
| 2026-05-04 13:39 | 37.46247 | 126.42790 | 38 ft | 6 kts | 74° |
| 2026-05-04 13:39 | 37.46255 | 126.42807 | 38 ft | 0 kts | 59° |
| 2026-05-04 13:40 | 37.46256 | 126.42810 | 38 ft | 1 kts | 59° |
| 2026-05-04 13:40 | 37.46262 | 126.42821 | 38 ft | 2 kts | 59° |
| 2026-05-04 13:40 | 37.46271 | 126.42842 | 38 ft | 5 kts | 58° |
| 2026-05-04 13:40 | 37.46298 | 126.42890 | 38 ft | 7 kts | 54° |
| 2026-05-04 13:41 | 37.46330 | 126.42947 | 38 ft | 9 kts | 54° |
| 2026-05-04 13:41 | 37.46357 | 126.43019 | 38 ft | 9 kts | 83° |
| 2026-05-04 13:41 | 37.46373 | 126.43094 | 38 ft | 8 kts | 70° |
| 2026-05-04 13:42 | 37.46392 | 126.43158 | 38 ft | 1 kts | 69° |
| 2026-05-04 13:42 | 37.46395 | 126.43168 | 38 ft | 1 kts | 70° |
| 2026-05-04 13:42 | 37.46395 | 126.43169 | 38 ft | 0 kts | 70° |